Time;durP1;ratioP1;P1;durP2;ratioP2;P2;SDS_P1;SDS_P2;PMS_P1;PMS_P2;Temp;Humidity;BMP_temperature;BMP_pressure;BME280_temperature;BME280_humidity;BME280_pressure;Samples;Min_cycle;Max_cycle;Signal;HPM_P1;HPM_P2
2022/06/17 00:00:48;;;;;;;7.30;2.97;;;16.30;99.90;;;;;;5080808;28;20403;-84
2022/06/17 00:03:14;;;;;;;5.90;2.47;;;16.30;99.90;;;;;;5083384;28;20414;-84
2022/06/17 00:05:40;;;;;;;3.17;2.40;;;16.30;99.90;;;;;;5082835;28;20476;-84
2022/06/17 00:08:14;;;;;;;7.23;2.80;;;16.30;99.90;;;;;;5078239;28;20187;-84
2022/06/17 00:10:39;;;;;;;3.60;2.50;;;16.30;99.90;;;;;;5080541;28;20431;-84
2022/06/17 00:13:05;;;;;;;2.30;2.10;;;16.30;99.90;;;;;;5063138;28;21033;-84
2022/06/17 00:15:31;;;;;;;4.23;1.90;;;16.30;99.90;;;;;;5082385;28;20259;-85
2022/06/17 00:17:58;;;;;;;5.50;2.50;;;16.20;99.90;;;;;;5081191;28;20188;-84
2022/06/17 00:20:24;;;;;;;2.47;2.30;;;16.20;99.90;;;;;;5081513;28;20191;-85
2022/06/17 00:22:51;;;;;;;5.93;2.20;;;16.20;99.90;;;;;;5063896;28;20469;-83
2022/06/17 00:25:35;;;;;;;3.33;2.30;;;16.10;99.90;;;;;;5080335;28;20851;-83
2022/06/17 00:28:01;;;;;;;3.17;2.30;;;16.10;99.90;;;;;;5076992;28;20454;-84
2022/06/17 00:30:31;;;;;;;3.43;2.43;;;16.10;99.90;;;;;;5079077;28;20488;-83
2022/06/17 00:32:59;;;;;;;3.17;2.87;;;16.00;99.90;;;;;;5054097;28;20477;-84
2022/06/17 00:35:39;;;;;;;2.60;2.30;;;16.00;99.90;;;;;;5054393;28;20434;-84
2022/06/17 00:38:05;;;;;;;3.70;2.60;;;15.90;99.90;;;;;;5060955;28;20442;-84
2022/06/17 00:40:34;;;;;;;3.40;2.53;;;15.90;99.90;;;;;;5061757;28;20415;-84
2022/06/17 00:43:10;;;;;;;3.83;2.30;;;15.90;99.90;;;;;;5078202;28;20935;-83
2022/06/17 00:45:44;;;;;;;2.40;2.20;;;15.90;99.90;;;;;;5077376;28;20426;-83
2022/06/17 00:48:25;;;;;;;4.20;2.87;;;15.90;99.90;;;;;;5077593;28;20434;-83
2022/06/17 00:51:13;;;;;;;2.10;1.93;;;15.80;99.90;;;;;;5077302;28;20448;-84
2022/06/17 00:53:49;;;;;;;4.40;2.80;;;15.80;99.90;;;;;;5077273;28;20466;-83
2022/06/17 00:56:22;;;;;;;2.17;1.97;;;15.80;99.90;;;;;;5078929;28;20407;-85
2022/06/17 00:59:04;;;;;;;2.43;1.93;;;15.60;99.90;;;;;;5077391;28;20909;-84
2022/06/17 01:01:46;;;;;;;2.53;2.17;;;15.70;99.90;;;;;;5077603;28;20450;-85
2022/06/17 01:04:14;;;;;;;3.10;2.17;;;15.70;99.90;;;;;;5059886;28;21053;-85
2022/06/17 01:06:43;;;;;;;5.43;2.60;;;15.80;99.90;;;;;;5079518;28;20415;-84
2022/06/17 01:12:06;;;;;;;3.67;2.70;;;15.70;99.90;;;;;;5045791;28;20558;-85
2022/06/17 01:14:31;;;;;;;6.53;2.70;;;15.70;99.90;;;;;;5059228;28;20415;-84
2022/06/17 01:16:58;;;;;;;2.33;2.03;;;15.60;99.90;;;;;;5078433;28;20812;-84
2022/06/17 01:19:46;;;;;;;3.23;2.30;;;15.50;99.90;;;;;;5078004;28;20883;-83
2022/06/17 01:22:20;;;;;;;3.83;2.50;;;15.30;99.90;;;;;;5077373;28;20441;-84
2022/06/17 01:24:47;;;;;;;3.60;2.23;;;15.30;99.90;;;;;;5058720;28;20650;-84
2022/06/17 01:27:19;;;;;;;5.00;2.13;;;15.20;99.90;;;;;;5077691;28;20423;-84
2022/06/17 01:29:45;;;;;;;4.90;2.40;;;15.00;99.90;;;;;;5077274;28;20434;-84
2022/06/17 01:32:12;;;;;;;2.17;1.97;;;14.80;99.90;;;;;;5076892;28;20970;-84
2022/06/17 01:34:38;;;;;;;3.10;2.07;;;14.70;99.90;;;;;;5077581;28;20180;-84
2022/06/17 01:37:04;;;;;;;3.87;2.93;;;14.60;99.90;;;;;;5076787;28;20450;-82
2022/06/17 01:39:29;;;;;;;3.00;2.07;;;14.60;99.90;;;;;;5076196;28;20463;-85
2022/06/17 01:41:55;;;;;;;6.83;2.83;;;14.50;99.90;;;;;;5059551;28;20196;-83
2022/06/17 01:44:33;;;;;;;7.20;2.70;;;14.50;99.90;;;;;;5057454;28;20192;-83
2022/06/17 01:47:02;;;;;;;5.00;3.03;;;14.50;99.90;;;;;;5075207;28;20244;-84
2022/06/17 01:49:30;;;;;;;7.23;2.43;;;14.40;99.90;;;;;;5061734;28;20624;-84
2022/06/17 01:52:03;;;;;;;2.90;2.53;;;14.40;99.90;;;;;;5081099;23;20490;-84
2022/06/17 01:54:35;;;;;;;3.38;2.05;;;14.40;99.90;;;;;;5053805;28;20434;-84
2022/06/17 01:57:03;;;;;;;2.88;2.15;;;14.30;99.90;;;;;;5073174;28;20173;-83
2022/06/17 01:59:36;;;;;;;6.60;3.50;;;14.30;99.90;;;;;;5073160;28;20192;-83
2022/06/17 02:02:03;;;;;;;2.45;2.20;;;14.20;99.90;;;;;;5072299;28;20422;-83
2022/06/17 02:04:34;;;;;;;3.63;2.20;;;14.20;99.90;;;;;;5054375;28;20279;-83
2022/06/17 02:07:15;;;;;;;3.05;2.45;;;14.10;99.90;;;;;;5069496;28;20180;-84
2022/06/17 02:09:41;;;;;;;2.47;2.25;;;14.00;99.90;;;;;;5072274;28;20212;-84
2022/06/17 02:12:07;;;;;;;3.60;2.00;;;14.00;99.90;;;;;;5072513;28;20707;-83
2022/06/17 02:14:34;;;;;;;4.25;2.28;;;13.90;99.90;;;;;;5073473;28;20238;-83
2022/06/17 02:17:00;;;;;;;3.50;2.47;;;13.90;99.90;;;;;;5055162;28;20590;-84
2022/06/17 02:19:30;;;;;;;2.60;2.40;;;13.90;99.90;;;;;;5071853;28;20672;-84
2022/06/17 02:22:16;;;;;;;3.72;2.30;;;13.90;99.90;;;;;;5071771;28;20214;-83
2022/06/17 02:24:43;;;;;;;3.78;2.55;;;13.90;99.90;;;;;;5070743;28;20191;-83
2022/06/17 02:27:11;;;;;;;2.42;1.83;;;13.90;99.90;;;;;;5073060;28;20192;-84
2022/06/17 02:29:39;;;;;;;4.38;1.95;;;13.80;99.90;;;;;;5072473;28;20246;-84
2022/06/17 02:32:07;;;;;;;3.33;2.50;;;13.80;99.90;;;;;;5052869;28;20996;-83
2022/06/17 02:34:35;;;;;;;2.40;1.80;;;13.70;99.90;;;;;;5076119;28;21267;-83
2022/06/17 02:37:06;;;;;;;2.40;2.20;;;13.70;99.90;;;;;;5069648;28;20196;-84
2022/06/17 02:39:34;;;;;;;6.93;2.45;;;13.60;99.90;;;;;;5084045;28;20304;-82
2022/06/17 02:41:59;;;;;;;3.10;2.20;;;13.60;99.90;;;;;;5080368;28;20536;-83
2022/06/17 02:44:33;;;;;;;3.20;1.97;;;13.60;99.90;;;;;;5075943;28;20259;-84
2022/06/17 02:47:00;;;;;;;4.07;2.22;;;13.50;99.90;;;;;;5074284;28;20722;-84
2022/06/17 02:49:30;;;;;;;2.00;1.77;;;13.50;99.90;;;;;;5073544;28;20208;-83
2022/06/17 02:51:57;;;;;;;2.47;2.20;;;13.50;99.90;;;;;;5072646;28;20207;-83
2022/06/17 02:54:38;;;;;;;5.88;2.22;;;13.50;99.90;;;;;;5054327;28;20187;-83
2022/06/17 02:57:13;;;;;;;2.20;1.95;;;13.50;99.90;;;;;;5072620;28;20661;-83
2022/06/17 02:59:44;;;;;;;2.15;2.00;;;13.50;99.90;;;;;;5054400;28;20611;-83
2022/06/17 03:02:28;;;;;;;2.63;1.90;;;13.60;99.90;;;;;;5069274;28;20188;-84
2022/06/17 03:04:54;;;;;;;3.47;2.40;;;13.50;99.90;;;;;;5052267;28;21092;-85
2022/06/17 03:07:23;;;;;;;3.20;1.65;;;13.50;99.90;;;;;;5070957;28;20183;-84
2022/06/17 03:09:49;;;;;;;2.15;1.95;;;13.50;99.90;;;;;;5070060;28;20821;-84
2022/06/17 03:12:22;;;;;;;5.35;2.17;;;13.60;99.90;;;;;;5052789;28;20361;-84
2022/06/17 03:15:13;;;;;;;4.60;2.10;;;13.60;99.90;;;;;;5071028;28;21410;-84
2022/06/17 03:17:44;;;;;;;3.08;2.00;;;13.60;99.90;;;;;;5071017;28;20165;-84
2022/06/17 03:20:17;;;;;;;6.40;2.15;;;13.60;99.90;;;;;;5069749;28;20176;-84
2022/06/17 03:22:46;;;;;;;6.15;1.40;;;13.60;99.90;;;;;;5070540;28;20263;-85
2022/06/17 03:25:21;;;;;;;2.60;1.90;;;13.60;99.90;;;;;;5059896;28;20188;-84
2022/06/17 03:28:02;;;;;;;5.90;1.80;;;13.60;99.90;;;;;;5070371;28;20172;-84
2022/06/17 03:30:36;;;;;;;4.13;1.92;;;13.60;99.90;;;;;;5051898;28;20224;-84
2022/06/17 03:33:23;;;;;;;2.10;2.00;;;13.70;99.90;;;;;;5036527;28;20236;-84
2022/06/17 03:35:54;;;;;;;4.15;2.05;;;13.80;99.90;;;;;;5068340;28;20172;-84
2022/06/17 03:38:34;;;;;;;3.55;1.70;;;13.90;99.90;;;;;;5051533;28;20660;-84
2022/06/17 03:41:16;;;;;;;2.50;1.45;;;13.90;99.90;;;;;;5051514;28;20203;-84
2022/06/17 03:44:07;;;;;;;2.65;2.05;;;14.00;99.90;;;;;;5071083;28;20267;-84
2022/06/17 03:46:43;;;;;;;1.80;1.55;;;14.10;99.90;;;;;;5071258;28;20208;-84
2022/06/17 03:49:17;;;;;;;1.90;1.50;;;14.20;99.90;;;;;;5070769;28;20231;-85
2022/06/17 03:51:44;;;;;;;2.50;1.95;;;14.30;99.90;;;;;;5051684;28;20227;-83
2022/06/17 03:54:13;;;;;;;3.20;1.98;;;14.40;99.90;;;;;;5071903;28;20184;-84
2022/06/17 03:56:41;;;;;;;2.65;1.80;;;14.50;99.90;;;;;;5070214;28;20245;-83
2022/06/17 03:59:13;;;;;;;2.07;1.90;;;14.90;99.90;;;;;;5070441;28;20211;-83
2022/06/17 04:01:46;;;;;;;2.83;1.83;;;14.90;99.90;;;;;;5070869;28;20437;-83
2022/06/17 04:04:16;;;;;;;2.37;1.70;;;15.00;99.90;;;;;;5072684;28;20487;-82
2022/06/17 04:06:45;;;;;;;3.23;1.80;;;15.20;99.90;;;;;;5080929;28;20497;-83
2022/06/17 04:09:17;;;;;;;2.60;1.90;;;15.70;99.90;;;;;;5082412;28;20430;-84
2022/06/17 04:11:46;;;;;;;1.60;1.50;;;15.60;99.90;;;;;;5075544;28;20790;-83
2022/06/17 04:14:20;;;;;;;2.27;1.63;;;15.60;99.90;;;;;;5075128;28;20438;-83
2022/06/17 04:16:52;;;;;;;1.90;1.63;;;15.70;99.90;;;;;;5055064;28;20433;-83
2022/06/17 04:19:21;;;;;;;2.67;1.70;;;16.30;99.90;;;;;;5047415;28;21077;-83
2022/06/17 04:21:48;;;;;;;2.60;1.90;;;17.90;99.90;;;;;;5056984;28;20790;-82
2022/06/17 04:24:18;;;;;;;9.90;1.60;;;17.90;99.90;;;;;;5072555;28;20422;-85
2022/06/17 04:26:47;;;;;;;8.83;1.93;;;18.90;99.90;;;;;;5074205;28;20502;-84
2022/06/17 04:29:20;;;;;;;2.00;1.80;;;20.40;99.90;;;;;;5070679;28;20541;-82
2022/06/17 04:31:59;;;;;;;2.10;1.90;;;21.20;99.90;;;;;;5053727;28;20441;-83
2022/06/17 04:34:24;;;;;;;5.13;2.07;;;22.20;99.90;;;;;;5070716;28;20433;-82
2022/06/17 04:37:00;;;;;;;3.00;1.80;;;22.90;99.90;;;;;;5064438;28;20419;-84
2022/06/17 04:39:34;;;;;;;5.40;1.90;;;24.20;97.90;;;;;;5061050;28;20191;-85
2022/06/17 04:42:05;;;;;;;4.03;1.50;;;24.40;96.20;;;;;;5076496;28;20418;-84
2022/06/17 04:44:30;;;;;;;4.27;2.10;;;25.70;98.00;;;;;;5075238;28;20449;-85
2022/06/17 04:47:10;;;;;;;2.70;2.00;;;26.70;91.80;;;;;;5071632;28;20940;-84
2022/06/17 04:49:40;;;;;;;3.97;2.03;;;27.60;90.60;;;;;;5073877;28;20200;-83
2022/06/17 04:52:30;;;;;;;3.77;1.77;;;28.50;91.20;;;;;;5073643;28;20493;-85
2022/06/17 04:54:58;;;;;;;5.53;2.03;;;29.50;79.50;;;;;;5074248;28;20411;-83
2022/06/17 04:57:24;;;;;;;1.90;1.67;;;;;;;;;;5056636;28;20515;-84
2022/06/17 04:59:50;;;;;;;1.90;1.50;;;;;;;;;;5061634;28;20451;-84
2022/06/17 05:02:19;;;;;;;5.00;2.67;;;35.80;57.70;;;;;;5073788;28;20422;-84
2022/06/17 05:04:48;;;;;;;2.20;2.00;;;37.10;52.60;;;;;;5073387;28;20427;-85
2022/06/17 05:07:15;;;;;;;3.20;2.50;;;;;;;;;;5057119;28;20994;-85
2022/06/17 05:09:48;;;;;;;3.50;3.30;;;39.00;44.40;;;;;;5072465;28;20461;-84
2022/06/17 05:12:34;;;;;;;5.70;4.40;;;40.10;42.60;;;;;;5073189;28;21174;-86
2022/06/17 05:15:12;;;;;;;6.13;5.83;;;40.80;39.10;;;;;;5071607;28;21060;-86
2022/06/17 05:17:38;;;;;;;8.40;6.87;;;;;;;;;;5063008;28;20445;-84
2022/06/17 05:20:12;;;;;;;7.80;7.40;;;42.60;48.10;;;;;;5089130;28;20484;-83
2022/06/17 05:22:42;;;;;;;9.30;8.57;;;43.10;32.80;;;;;;5083518;28;20183;-86
2022/06/17 05:25:15;;;;;;;9.57;9.17;;;42.90;30.80;;;;;;5058626;28;20492;-84
2022/06/17 05:27:41;;;;;;;9.77;9.33;;;;;;;;;;5076610;28;20425;-84
2022/06/17 05:30:07;;;;;;;10.17;9.57;;;;;;;;;;5075176;28;20419;-86
2022/06/17 05:32:33;;;;;;;10.20;9.60;;;;;;;;;;5076021;28;20458;-85
2022/06/17 05:34:59;;;;;;;11.07;10.17;;;;;;;;;;5071975;28;20487;-84
2022/06/17 05:37:25;;;;;;;11.80;11.10;;;;;;;;;;5078817;28;20180;-85
2022/06/17 05:39:51;;;;;;;11.20;10.60;;;;;;;;;;5075065;28;20503;-86
2022/06/17 05:42:17;;;;;;;13.10;12.50;;;;;;;;;;5073349;28;20957;-86
2022/06/17 05:44:43;;;;;;;13.10;12.50;;;;;;;;;;5073405;28;20215;-85
2022/06/17 05:47:09;;;;;;;14.37;13.57;;;;;;;;;;5072585;28;20226;-85
2022/06/17 05:49:35;;;;;;;12.90;12.20;;;;;;;;;;5055550;28;20204;-85
2022/06/17 05:52:01;;;;;;;12.83;12.23;;;;;;;;;;5070764;28;20469;-86
2022/06/17 05:54:27;;;;;;;13.10;12.50;;;39.90;29.80;;;;;;5054523;28;20433;-85
2022/06/17 05:56:52;;;;;;;12.77;12.07;;;38.90;43.80;;;;;;5054707;28;20465;-85
2022/06/17 05:59:18;;;;;;;12.03;11.40;;;;;;;;;;5071392;28;20859;-84
2022/06/17 06:01:44;;;;;;;12.13;11.53;;;;;;;;;;5065177;28;20268;-85
2022/06/17 06:04:10;;;;;;;12.57;11.77;;;;;;;;;;5073802;28;20226;-84
2022/06/17 06:06:36;;;;;;;13.17;12.37;;;;;;;;;;5055539;28;20426;-84
2022/06/17 06:09:02;;;;;;;12.80;12.30;;;;;;;;;;5073724;28;20584;-85
2022/06/17 06:11:28;;;;;;;13.87;13.17;;;;;;;;;;5056435;28;20421;-84
2022/06/17 06:13:54;;;;;;;12.30;11.80;;;;;;;;;;5071028;28;20483;-85
2022/06/17 06:16:20;;;;;;;11.50;11.00;;;;;;;;;;5070337;28;20421;-84
2022/06/17 06:18:47;;;;;;;11.27;10.60;;;41.90;34.40;;;;;;5073255;28;20452;-85
2022/06/17 06:21:13;;;;;;;12.00;11.50;;;41.20;27.60;;;;;;5056172;28;20655;-85
2022/06/17 06:23:41;;;;;;;11.83;11.23;;;40.00;34.50;;;;;;5069044;28;20530;-85
2022/06/17 06:26:08;;;;;;;13.17;12.37;;;40.00;28.90;;;;;;5074094;28;21346;-86
2022/06/17 06:28:34;;;;;;;12.70;11.73;;;39.90;29.40;;;;;;5068421;28;20549;-85
2022/06/17 06:31:21;;;;;;;12.23;11.40;;;40.00;29.60;;;;;;5050000;28;20421;-85
2022/06/17 06:33:47;;;;;;;11.50;11.00;;;;;;;;;;5069654;28;20461;-85
2022/06/17 06:36:12;;;;;;;12.07;11.10;;;40.30;38.20;;;;;;5069287;28;20865;-86
2022/06/17 06:38:38;;;;;;;11.60;10.90;;;;;;;;;;5070473;28;20204;-86
2022/06/17 06:41:04;;;;;;;11.40;10.70;;;;;;;;;;5068529;28;20217;-85
2022/06/17 06:43:30;;;;;;;13.47;12.70;;;;;;;;;;5070107;28;20467;-84
2022/06/17 06:45:56;;;;;;;11.80;11.10;;;;;;;;;;5068984;28;20423;-85
2022/06/17 06:48:24;;;;;;;13.20;12.47;;;41.50;28.60;;;;;;5067589;28;20450;-86
2022/06/17 06:50:50;;;;;;;12.23;11.63;;;;;;;;;;5068152;28;20441;-84
2022/06/17 06:53:16;;;;;;;11.87;11.23;;;;;;;;;;5066787;28;20470;-84
2022/06/17 06:55:42;;;;;;;11.77;11.27;;;;;;;;;;5068051;28;20426;-85
2022/06/17 06:58:14;;;;;;;13.27;12.37;;;44.10;27.20;;;;;;5065531;28;20464;-85
2022/06/17 07:00:43;;;;;;;12.70;12.00;;;43.90;40.60;;;;;;5068408;28;20414;-86
2022/06/17 07:03:09;;;;;;;12.67;12.07;;;;;;;;;;5068589;28;20937;-86
2022/06/17 07:05:38;;;;;;;14.07;12.97;;;44.40;26.70;;;;;;5057711;28;20500;-85
2022/06/17 07:08:05;;;;;;;14.57;13.77;;;45.30;26.80;;;;;;5048477;28;20458;-85
2022/06/17 07:10:33;;;;;;;7.33;6.63;;;45.60;26.50;;;;;;5066788;28;20419;-86
2022/06/17 07:12:59;;;;;;;8.10;7.60;;;;;;;;;;5067687;28;20466;-86
2022/06/17 07:15:26;;;;;;;8.70;8.30;;;;;;;;;;5049789;28;20708;-85
2022/06/17 07:17:58;;;;;;;9.73;9.23;;;46.20;27.50;;;;;;5071711;28;20789;-83
2022/06/17 07:20:26;;;;;;;9.73;9.23;;;45.60;24.70;;;;;;5081083;28;20878;-86
2022/06/17 07:22:52;;;;;;;11.63;10.67;;;;;;;;;;5066148;28;20529;-85
2022/06/17 07:25:19;;;;;;;8.40;7.97;;;44.10;26.30;;;;;;5066236;28;20514;-85
2022/06/17 07:27:45;;;;;;;10.20;9.60;;;;;;;;;;5050174;28;20415;-86
2022/06/17 07:30:18;;;;;;;10.50;10.00;;;45.00;25.80;;;;;;5068976;28;20976;-87
2022/06/17 07:32:45;;;;;;;10.77;10.00;;;;;;;;;;5050566;28;20998;-85
2022/06/17 07:35:11;;;;;;;9.80;9.20;;;;;;;;;;5070102;28;20525;-85
2022/06/17 07:40:22;;;;;;;14.83;14.23;;;;;;;;;;5081710;22;20517;-83
2022/06/17 07:42:48;;;;;;;15.87;14.63;;;;;;;;;;5057701;28;20431;-84
2022/06/17 07:45:18;;;;;;;14.03;13.33;;;42.80;27.10;;;;;;5063606;28;20487;-84
2022/06/17 07:47:48;;;;;;;14.73;14.03;;;42.50;27.60;;;;;;5068313;28;20511;-82
2022/06/17 07:50:18;;;;;;;14.80;14.13;;;42.30;27.20;;;;;;5049591;28;20462;-83
2022/06/17 07:52:44;;;;;;;13.93;13.20;;;;;;;;;;5063314;28;20464;-83
2022/06/17 07:55:10;;;;;;;15.33;14.20;;;;;;;;;;5061368;28;20418;-84
2022/06/17 07:57:36;;;;;;;15.53;14.73;;;;;;;;;;5056738;28;21080;-86
2022/06/17 08:00:06;;;;;;;16.83;15.97;;;42.90;27.50;;;;;;5058953;28;20458;-83
2022/06/17 08:02:32;;;;;;;2.10;1.90;;;;;;;;;;5068437;28;20922;-85
2022/06/17 08:04:58;;;;;;;6.87;2.13;;;;;;;;;;5051690;28;20448;-86
2022/06/17 08:07:24;;;;;;;6.73;2.37;;;;;;;;;;5061910;28;20609;-85
2022/06/17 08:09:50;;;;;;;3.67;2.43;;;;;;;;;;5039493;28;20494;-84
2022/06/17 08:12:15;;;;;;;5.00;3.00;;;41.40;36.60;;;;;;5050322;28;20506;-85
2022/06/17 08:14:43;;;;;;;3.80;2.20;;;;;;;;;;5054906;28;20187;-86
2022/06/17 08:17:11;;;;;;;2.73;2.37;;;42.40;28.50;;;;;;5068987;28;20237;-85
2022/06/17 08:19:38;;;;;;;3.93;2.10;;;;;;;;;;5052817;28;20446;-85
2022/06/17 08:22:04;;;;;;;9.30;2.47;;;;;;;;;;5066081;28;20435;-86
2022/06/17 08:24:30;;;;;;;6.03;2.50;;;;;;;;;;5071671;28;20427;-83
2022/06/17 08:26:55;;;;;;;4.27;2.53;;;;;;;;;;5073022;28;20395;-83
2022/06/17 08:29:22;;;;;;;6.27;2.50;;;;;;;;;;5041535;28;20526;-85
2022/06/17 08:31:48;;;;;;;3.57;2.73;;;;;;;;;;5046698;28;20490;-83
2022/06/17 08:34:14;;;;;;;3.27;2.20;;;;;;;;;;5075806;28;20873;-84
2022/06/17 08:36:40;;;;;;;3.13;2.80;;;40.80;28.40;;;;;;5069061;28;20458;-85
2022/06/17 08:39:10;;;;;;;6.10;2.87;;;40.60;28.40;;;;;;5063980;28;20822;-85
2022/06/17 08:41:59;;;;;;;4.53;2.43;;;40.10;28.30;;;;;;5040773;28;20415;-85
2022/06/17 08:44:48;;;;;;;6.60;2.97;;;40.10;30.70;;;;;;5040970;28;20435;-86
2022/06/17 08:47:37;;;;;;;2.77;2.53;;;40.60;28.90;;;;;;5066465;28;20523;-83
2022/06/17 08:50:40;;;;;;;2.83;2.57;;;40.60;28.90;;;;;;5067230;28;20450;-83
2022/06/17 08:53:30;;;;;;;3.53;2.67;;;40.00;29.80;;;;;;5041477;28;20474;-85
2022/06/17 08:56:07;;;;;;;5.47;2.73;;;39.40;29.00;;;;;;5039315;28;20538;-84
2022/06/17 08:58:50;;;;;;;3.70;2.70;;;38.60;29.30;;;;;;5038573;28;20441;-83
2022/06/17 09:01:44;;;;;;;28.03;3.53;;;39.00;35.90;;;;;;5061209;28;20907;-86
2022/06/17 09:04:15;;;;;;;3.60;3.00;;;38.60;31.60;;;;;;5052043;28;20421;-84
2022/06/17 09:07:09;;;;;;;3.20;2.90;;;39.60;29.90;;;;;;5064516;28;20521;-85
2022/06/17 09:09:49;;;;;;;2.60;2.40;;;40.70;28.80;;;;;;5039853;28;20831;-85
2022/06/17 09:12:40;;;;;;;9.87;2.67;;;40.60;29.30;;;;;;5036710;28;20482;-85
2022/06/17 09:15:09;;;;;;;6.67;2.57;;;40.70;27.40;;;;;;5034989;28;20427;-83
2022/06/17 09:17:39;;;;;;;6.87;2.40;;;40.70;27.60;;;;;;5064459;28;20414;-86
2022/06/17 09:20:07;;;;;;;4.70;2.63;;;41.70;27.50;;;;;;5050281;28;20811;-86
2022/06/17 09:22:38;;;;;;;4.53;2.70;;;41.60;27.50;;;;;;5059591;28;20801;-85
2022/06/17 09:25:08;;;;;;;4.13;2.10;;;40.70;26.60;;;;;;5047101;28;20439;-84
2022/06/17 09:27:40;;;;;;;5.27;2.50;;;40.60;28.00;;;;;;5057476;28;20411;-84
2022/06/17 09:30:12;;;;;;;15.97;14.87;;;40.20;31.90;;;;;;5050206;28;20445;-84
2022/06/17 09:32:46;;;;;;;14.60;13.53;;;40.10;28.20;;;;;;5056197;28;20900;-81
2022/06/17 09:35:43;;;;;;;15.83;15.00;;;39.50;28.80;;;;;;5065260;28;20445;-83
2022/06/17 09:38:15;;;;;;;15.13;14.10;;;38.90;29.60;;;;;;5061827;28;20685;-86
2022/06/17 09:40:42;;;;;;;13.77;13.00;;;39.20;39.90;;;;;;5036772;28;20470;-87
2022/06/17 09:43:19;;;;;;;16.27;14.77;;;39.30;28.40;;;;;;5056286;28;20431;-86
2022/06/17 09:45:52;;;;;;;14.63;13.93;;;39.80;40.10;;;;;;5053667;28;20430;-86
2022/06/17 09:48:31;;;;;;;15.27;14.37;;;40.10;30.60;;;;;;5064130;28;20434;-85
2022/06/17 09:51:19;;;;;;;14.80;14.00;;;40.00;27.70;;;;;;5053609;28;20465;-87
2022/06/17 09:53:53;;;;;;;14.67;13.67;;;38.90;26.80;;;;;;5053095;28;20467;-85
2022/06/17 09:56:46;;;;;;;14.30;13.70;;;38.30;30.00;;;;;;5055109;28;20420;-86
2022/06/17 09:59:32;;;;;;;14.33;13.60;;;38.50;31.30;;;;;;5036937;28;20450;-86
2022/06/17 10:02:11;;;;;;;12.93;12.23;;;38.50;29.20;;;;;;5058433;28;20414;-87
2022/06/17 10:04:37;;;;;;;17.50;13.23;;;;;;;;;;5071115;28;20440;-86
2022/06/17 10:07:19;;;;;;;14.53;13.63;;;38.10;29.70;;;;;;5066838;28;20801;-87
2022/06/17 10:10:21;;;;;;;14.77;13.90;;;38.30;29.10;;;;;;5044678;28;20458;-88
2022/06/17 10:13:14;;;;;;;14.47;13.77;;;38.20;38.80;;;;;;5036226;28;21093;-86
2022/06/17 10:19:19;;;;;;;13.27;12.37;;;38.80;28.20;;;;;;5063657;28;21122;-86
2022/06/17 10:22:10;;;;;;;12.70;12.20;;;39.00;35.10;;;;;;5064886;28;20437;-85
2022/06/17 10:25:14;;;;;;;12.50;11.90;;;38.50;36.00;;;;;;5041255;28;20429;-87
2022/06/17 10:28:10;;;;;;;15.47;14.50;;;37.90;26.70;;;;;;5039826;28;20463;-86
2022/06/17 10:30:52;;;;;;;13.67;12.50;;;37.20;30.90;;;;;;5055795;28;20442;-86
2022/06/17 10:33:18;;;;;;;12.33;11.83;;;36.00;29.70;;;;;;5039840;28;20464;-86
2022/06/17 10:35:46;;;;;;;12.40;11.70;;;35.70;29.60;;;;;;5065618;28;20520;-85
2022/06/17 10:38:24;;;;;;;12.53;11.83;;;36.30;30.10;;;;;;5053269;28;20441;-84
2022/06/17 10:40:50;;;;;;;11.90;11.10;;;34.90;31.10;;;;;;5065824;28;20559;-85
2022/06/17 10:43:24;;;;;;;10.60;9.90;;;31.60;36.10;;;;;;5058681;28;20509;-83
2022/06/17 10:45:51;;;;;;;9.10;8.50;;;31.50;36.00;;;;;;5033329;28;20189;-84
2022/06/17 10:48:26;;;;;;;9.13;8.33;;;30.80;36.80;;;;;;5053394;28;20442;-87
2022/06/17 10:50:52;;;;;;;13.67;8.87;;;30.30;39.10;;;;;;5064743;28;20511;-87
2022/06/17 10:53:37;;;;;;;7.77;7.27;;;30.00;39.30;;;;;;5042846;28;20989;-86
2022/06/17 10:56:11;;;;;;;6.70;6.20;;;29.00;39.40;;;;;;5047661;28;20172;-85
2022/06/17 10:58:37;;;;;;;10.43;8.40;;;29.00;41.40;;;;;;5038225;28;20467;-84
2022/06/17 11:01:15;;;;;;;7.37;6.77;;;28.80;39.60;;;;;;5044989;28;20452;-87
2022/06/17 11:03:48;;;;;;;7.37;6.00;;;28.60;39.30;;;;;;5034564;28;20422;-87
2022/06/17 11:06:16;;;;;;;6.10;5.57;;;28.40;41.70;;;;;;5063007;28;20428;-85
2022/06/17 11:08:59;;;;;;;6.00;5.43;;;28.40;42.50;;;;;;5060861;28;20417;-84
2022/06/17 11:12:05;;;;;;;6.33;5.63;;;28.30;41.70;;;;;;5035489;28;20415;-84
2022/06/17 11:14:45;;;;;;;5.43;5.03;;;28.10;41.70;;;;;;5037350;28;20978;-85
2022/06/17 11:17:44;;;;;;;5.60;5.20;;;28.20;40.40;;;;;;5032787;28;20488;-85
2022/06/17 11:20:20;;;;;;;5.33;4.83;;;28.40;41.20;;;;;;5042187;28;20879;-86
2022/06/17 11:22:52;;;;;;;5.40;5.10;;;28.30;42.00;;;;;;5066782;28;20408;-86
2022/06/17 11:25:35;;;;;;;5.17;4.80;;;28.40;40.60;;;;;;5061521;28;21192;-86
2022/06/17 11:28:24;;;;;;;6.73;5.33;;;28.30;39.70;;;;;;5036350;28;20416;-85
2022/06/17 11:31:01;;;;;;;6.43;4.70;;;28.20;39.80;;;;;;5052677;28;20505;-85
2022/06/17 11:33:40;;;;;;;4.60;4.20;;;28.20;41.60;;;;;;5034318;28;20984;-86
2022/06/17 11:36:13;;;;;;;4.17;3.87;;;28.10;41.50;;;;;;5059948;28;20431;-85
2022/06/17 11:38:39;;;;;;;6.83;4.13;;;;;;;;;;5048091;28;20473;-86
2022/06/17 11:41:05;;;;;;;7.30;4.07;;;;;;;;;;5048373;28;20454;-86
2022/06/17 11:43:43;;;;;;;4.73;4.17;;;28.10;40.70;;;;;;5047243;28;20836;-86
2022/06/17 11:46:18;;;;;;;4.90;4.50;;;28.20;41.40;;;;;;5050403;28;20529;-86
2022/06/17 11:48:57;;;;;;;3.77;3.53;;;27.80;39.00;;;;;;5049922;28;20468;-87
2022/06/17 11:51:36;;;;;;;4.20;4.00;;;27.70;41.10;;;;;;5040206;28;20437;-87
2022/06/17 11:54:23;;;;;;;5.33;4.93;;;28.00;40.40;;;;;;5044195;28;20453;-85
2022/06/17 11:56:49;;;;;;;3.90;3.70;;;28.10;41.20;;;;;;5058872;28;20506;-85
2022/06/17 11:59:25;;;;;;;4.90;4.60;;;28.40;39.30;;;;;;5053584;28;20451;-85
2022/06/17 12:01:54;;;;;;;4.70;4.40;;;28.70;38.70;;;;;;5033805;28;20738;-87
2022/06/17 12:04:46;;;;;;;5.73;4.43;;;28.50;38.40;;;;;;5045801;28;20430;-85
2022/06/17 12:07:43;;;;;;;4.53;4.20;;;28.70;40.10;;;;;;5063230;28;20431;-84
2022/06/17 12:10:32;;;;;;;4.80;4.50;;;29.00;38.10;;;;;;5036179;28;20434;-86
2022/06/17 12:13:24;;;;;;;4.97;4.57;;;29.10;38.40;;;;;;5038786;28;20464;-85
2022/06/17 12:16:23;;;;;;;5.40;5.10;;;29.10;36.80;;;;;;5044637;28;20431;-87
2022/06/17 12:18:55;;;;;;;5.57;5.27;;;28.60;38.50;;;;;;5045062;28;20435;-85
2022/06/17 12:21:33;;;;;;;4.50;4.30;;;28.70;39.30;;;;;;5061918;28;20507;-85
2022/06/17 12:24:33;;;;;;;4.90;4.37;;;28.90;37.70;;;;;;5063923;28;20880;-85
2022/06/17 12:27:04;;;;;;;5.50;5.30;;;29.20;36.40;;;;;;5043894;28;20469;-86
2022/06/17 12:29:33;;;;;;;5.20;4.90;;;29.30;37.30;;;;;;5036673;28;20544;-86
2022/06/17 12:32:05;;;;;;;5.30;5.00;;;29.20;33.40;;;;;;5055647;28;20440;-85
2022/06/17 12:34:31;;;;;;;4.97;4.77;;;;;;;;;;5035738;28;20490;-86
2022/06/17 12:37:04;;;;;;;4.90;4.60;;;29.00;33.70;;;;;;5070543;28;20414;-85
2022/06/17 12:39:58;;;;;;;5.57;5.13;;;28.90;34.20;;;;;;5042090;28;20550;-86
2022/06/17 12:42:40;;;;;;;4.80;4.50;;;28.80;33.00;;;;;;5040465;28;20854;-87
2022/06/17 12:45:25;;;;;;;4.53;4.23;;;28.70;34.50;;;;;;5049946;28;20451;-88
2022/06/17 12:47:51;;;;;;;4.50;4.27;;;;;;;;;;5056018;28;20429;-86
2022/06/17 12:53:57;;;;;;;4.07;3.87;;;28.90;32.90;;;;;;5079633;28;20564;-85
2022/06/17 12:56:35;;;;;;;4.40;4.10;;;29.00;32.90;;;;;;5065970;28;20417;-86
2022/06/17 12:59:26;;;;;;;4.50;4.20;;;29.50;30.80;;;;;;5059578;28;20476;-85
2022/06/17 13:02:15;;;;;;;4.30;4.10;;;29.60;31.20;;;;;;5056785;28;20430;-87
2022/06/17 13:05:09;;;;;;;5.57;5.27;;;29.80;29.70;;;;;;5033585;28;20428;-85
2022/06/17 13:07:54;;;;;;;4.83;4.63;;;30.20;31.10;;;;;;5043223;28;20594;-85
2022/06/17 13:10:40;;;;;;;5.43;5.13;;;30.30;30.10;;;;;;5041370;28;20435;-87
2022/06/17 13:13:42;;;;;;;4.77;4.30;;;30.90;31.20;;;;;;5042572;28;20489;-86
2022/06/17 13:16:22;;;;;;;4.03;3.83;;;30.20;33.10;;;;;;5052943;28;20461;-86
2022/06/17 13:18:48;;;;;;;4.63;4.30;;;;;;;;;;5035073;28;20414;-85
2022/06/17 13:21:26;;;;;;;4.50;4.27;;;30.00;32.00;;;;;;5059326;28;20779;-86
2022/06/17 13:24:08;;;;;;;4.50;4.20;;;30.00;31.10;;;;;;5041449;28;20439;-85
2022/06/17 13:27:00;;;;;;;4.03;3.83;;;30.10;33.50;;;;;;5063598;28;20430;-86
2022/06/17 13:29:54;;;;;;;3.93;3.73;;;29.80;33.20;;;;;;5059304;28;21052;-85
2022/06/17 13:32:25;;;;;;;4.10;3.90;;;29.80;33.90;;;;;;5035844;28;20497;-86
2022/06/17 13:34:57;;;;;;;4.07;3.83;;;29.90;32.80;;;;;;5033972;28;20504;-85
2022/06/17 13:37:34;;;;;;;4.50;4.20;;;30.00;32.40;;;;;;5039679;28;20423;-85
2022/06/17 13:40:11;;;;;;;4.33;4.07;;;30.00;35.40;;;;;;5064026;28;20887;-87
2022/06/17 13:42:37;;;;;;;4.20;3.90;;;30.20;32.70;;;;;;5085176;22;20502;-84
2022/06/17 13:45:18;;;;;;;3.67;3.47;;;30.20;32.80;;;;;;5062718;28;20431;-85